Faribault, MN

12:10 PM CDT on June 26, 2017 (GMT -0500)
Faribault Municipal

Weather History for KFBL - September, 2012

Change the Weather History Date:

Wednesday, September 19, 2012

  Actual Average Record
Temperature  
Mean Temperature 58 °F -  
Max Temperature 73 °F 72 °F 89 °F (1998)
Min Temperature 44 °F 50 °F 37 °F (1991)
Degree Days  
Heating Degree Days 6    
Growing Degree Days 8 (Base 50)    
Moisture  
Dew Point 41 °F    
Average Humidity 53    
Maximum Humidity 93    
Minimum Humidity 33    
Precipitation  
Precipitation 0.00 in - - ()
Sea Level Pressure  
Sea Level Pressure 29.78 in    
Wind  
Wind Speed 11 mph (SW)    
Max Wind Speed 22 mph    
Max Gust Speed 32 mph    
Visibility 10 miles    
Events      
Averages and records for this station are not official NWS values.
T = Trace of Precipitation, MM = Missing Value Source: NWS Daily Summary

Daily Weather History Graph

Daily Weather History Graph

Search for Another Location

Airport or City:

Trip Planner

Search our weather history database for the weather conditions in past years. The results will help you decide how hot, cold, wet, or windy it might be!

Date:

Astronomy

Sep. 19, 2012 Rise Set
Actual Time 6:57 AM CDT 7:15 PM CDT
Civil Twilight 6:28 AM CDT 7:44 PM CDT
Nautical Twilight 5:54 AM CDT 8:18 PM CDT
Astronomical Twilight 5:19 AM CDT 8:53 PM CDT
Moon 11:20 AM CDT (9/19) 9:12 PM CDT (9/19)
Length of Visible Light 13h 15m
Length of Day
12h 17m
Waxing Crescent, 17% of the Moon is Illuminated
Sep 19
Waxing Crescent
Sep 22
First Quarter
Sep 29
Full
Oct 8
Last Quarter
Oct 15
New

Hourly Weather History & Observations

Time (CDT) Temp. Windchill Dew Point Humidity Pressure Visibility Wind Dir Wind Speed Gust Speed Precip Events Conditions
12:14 AM 51.8 °F - 35.6 °F 54% 29.90 in 10.0 mi SSE 5.8 mph - N/A   Scattered Clouds
12:54 AM 51.8 °F - 35.6 °F 54% 29.89 in 10.0 mi South 6.9 mph - N/A   Overcast
1:14 AM 53.6 °F - 35.6 °F 51% 29.88 in 10.0 mi SSE 9.2 mph - N/A   Overcast
1:35 AM 53.6 °F - 35.6 °F 51% 29.88 in 10.0 mi South 8.1 mph 16.1 mph N/A   Overcast
1:54 AM 53.6 °F - 35.6 °F 51% 29.87 in 10.0 mi SSE 11.5 mph 16.1 mph N/A   Overcast
2:14 AM 53.6 °F - 33.8 °F 47% 29.86 in 10.0 mi South 10.4 mph 17.3 mph N/A   Overcast
2:34 AM 53.6 °F - 33.8 °F 47% 29.85 in 10.0 mi South 11.5 mph - N/A   Overcast
2:54 AM 53.6 °F - 33.8 °F 47% 29.85 in 10.0 mi South 13.8 mph 20.7 mph N/A   Overcast
3:14 AM 53.6 °F - 35.6 °F 51% 29.83 in 10.0 mi South 11.5 mph 19.6 mph N/A   Mostly Cloudy
3:34 AM 53.6 °F - 35.6 °F 51% 29.82 in 10.0 mi South 12.7 mph - N/A   Scattered Clouds
3:54 AM 51.8 °F - 35.6 °F 54% 29.81 in 10.0 mi South 10.4 mph 18.4 mph N/A   Clear
4:14 AM 51.8 °F - 35.6 °F 54% 29.79 in 10.0 mi SSE 12.7 mph - N/A   Clear
4:54 AM 51.8 °F - 35.6 °F 54% 29.78 in 10.0 mi SSE 11.5 mph 16.1 mph N/A   Scattered Clouds
5:14 AM 51.8 °F - 37.4 °F 58% 29.76 in 10.0 mi South 11.5 mph - N/A   Clear
5:34 AM 51.8 °F - 37.4 °F 58% 29.77 in 10.0 mi South 8.1 mph - N/A   Clear
5:54 AM 53.6 °F - 37.4 °F 54% 29.76 in 10.0 mi South 9.2 mph - N/A   Clear
6:14 AM 53.6 °F - 39.2 °F 58% 29.75 in 10.0 mi South 8.1 mph - N/A   Clear
6:34 AM 53.6 °F - 39.2 °F 58% 29.74 in 10.0 mi South 10.4 mph 17.3 mph N/A   Clear
6:54 AM 53.6 °F - 39.2 °F 58% 29.72 in 10.0 mi South 12.7 mph 19.6 mph N/A   Clear
7:14 AM 53.6 °F - 41.0 °F 62% 29.71 in 10.0 mi South 13.8 mph 23.0 mph N/A   Clear
7:34 AM 53.6 °F - 41.0 °F 62% 29.71 in 10.0 mi South 9.2 mph 19.6 mph N/A   Clear
7:54 AM 53.6 °F - 41.0 °F 62% 29.75 in 10.0 mi SW 11.5 mph 18.4 mph N/A   Clear
8:14 AM 55.4 °F - 42.8 °F 63% 29.73 in 10.0 mi South 11.5 mph - N/A   Clear
8:34 AM 55.4 °F - 44.6 °F 67% 29.73 in 10.0 mi SSW 13.8 mph 19.6 mph N/A   Clear
8:54 AM 57.2 °F - 44.6 °F 63% 29.72 in 10.0 mi South 12.7 mph 21.9 mph N/A   Clear
9:14 AM 57.2 °F - 44.6 °F 63% 29.73 in 10.0 mi SSW 10.4 mph 16.1 mph N/A   Clear
9:54 AM 59.0 °F - 44.6 °F 59% 29.74 in 10.0 mi SW 8.1 mph 16.1 mph N/A   Clear
10:14 AM 60.8 °F - 44.6 °F 55% 29.71 in 10.0 mi South 8.1 mph - N/A   Clear
10:34 AM 62.6 °F - 46.4 °F 55% 29.70 in 10.0 mi SSW 11.5 mph 17.3 mph N/A   Clear
10:55 AM 64.4 °F - 46.4 °F 52% 29.69 in 10.0 mi South 12.7 mph 18.4 mph N/A   Clear
11:14 AM 66.2 °F - 46.4 °F 49% 29.68 in 10.0 mi South 15.0 mph - N/A   Clear
11:34 AM 64.4 °F - 46.4 °F 52% 29.67 in 10.0 mi SSW 9.2 mph - N/A   Clear
11:54 AM 69.8 °F - 48.2 °F 46% 29.70 in 10.0 mi WSW 13.8 mph 17.3 mph N/A   Clear
12:14 PM 66.2 °F - 48.2 °F 52% 29.70 in 10.0 mi WSW 11.5 mph 17.3 mph N/A   Clear
12:34 PM 69.8 °F - 48.2 °F 46% 29.71 in 10.0 mi West 11.5 mph 17.3 mph N/A   Clear
12:54 PM 69.8 °F - 48.2 °F 46% 29.70 in 10.0 mi SW 6.9 mph - N/A   Clear
1:14 PM 71.6 °F - 48.2 °F 43% 29.70 in 10.0 mi West 10.4 mph 17.3 mph N/A   Clear
1:34 PM 71.6 °F - 48.2 °F 43% 29.70 in 10.0 mi WSW 10.4 mph - N/A   Clear
1:54 PM 73.4 °F - 46.4 °F 38% 29.70 in 10.0 mi WNW 16.1 mph 20.7 mph N/A   Clear
2:14 PM 73.4 °F - 46.4 °F 38% 29.69 in 10.0 mi West 13.8 mph 26.5 mph N/A   Clear
2:34 PM 73.4 °F - 44.6 °F 36% 29.70 in 10.0 mi West 13.8 mph 25.3 mph N/A   Clear
2:54 PM 71.6 °F - 44.6 °F 38% 29.70 in 10.0 mi West 20.7 mph 31.1 mph N/A   Scattered Clouds
3:14 PM 73.4 °F - 42.8 °F 33% 29.70 in 10.0 mi West 17.3 mph 29.9 mph N/A   Clear
3:34 PM 69.8 °F - 42.8 °F 38% 29.71 in 10.0 mi West 20.7 mph 31.1 mph N/A   Clear
3:54 PM 73.4 °F - 42.8 °F 33% 29.71 in 10.0 mi West 20.7 mph 31.1 mph N/A   Clear
4:14 PM 71.6 °F - 42.8 °F 35% 29.72 in 10.0 mi West 20.7 mph 28.8 mph N/A   Clear
4:34 PM 71.6 °F - 41.0 °F 33% 29.72 in 10.0 mi West 20.7 mph 29.9 mph N/A   Scattered Clouds
4:55 PM 69.8 °F - 41.0 °F 35% 29.74 in 10.0 mi West 20.7 mph 31.1 mph N/A   Scattered Clouds
5:14 PM 69.8 °F - 39.2 °F 33% 29.75 in 10.0 mi West 17.3 mph 29.9 mph N/A   Scattered Clouds
5:34 PM 68.0 °F - 39.2 °F 35% 29.76 in 10.0 mi WNW 20.7 mph 27.6 mph N/A   Scattered Clouds
5:54 PM 66.2 °F - 39.2 °F 37% 29.77 in 10.0 mi WNW 21.9 mph 32.2 mph N/A   Scattered Clouds
6:14 PM 66.2 °F - 37.4 °F 35% 29.78 in 10.0 mi West 18.4 mph 27.6 mph N/A   Clear
6:34 PM 64.4 °F - 37.4 °F 37% 29.79 in 10.0 mi WNW 18.4 mph 24.2 mph N/A   Clear
6:54 PM 64.4 °F - 37.4 °F 37% 29.80 in 10.0 mi WNW 12.7 mph 20.7 mph N/A   Clear
7:14 PM 62.6 °F - 39.2 °F 42% 29.81 in 10.0 mi WNW 9.2 mph - N/A   Clear
7:34 PM 60.8 °F - 39.2 °F 45% 29.82 in 10.0 mi WNW 8.1 mph - N/A   Clear
7:54 PM 60.8 °F - 39.2 °F 45% 29.83 in 10.0 mi WNW 11.5 mph 17.3 mph N/A   Clear
8:14 PM 57.2 °F - 42.8 °F 59% 29.84 in 10.0 mi NW 6.9 mph - N/A   Clear
8:34 PM 57.2 °F - 42.8 °F 59% 29.86 in 10.0 mi NW 5.8 mph - N/A   Clear
8:54 PM 55.4 °F - 42.8 °F 63% 29.86 in 10.0 mi WNW 4.6 mph - N/A   Clear
9:14 PM 53.6 °F - 42.8 °F 67% 29.87 in 10.0 mi NW 3.5 mph - N/A   Clear
9:34 PM 51.8 °F - 42.8 °F 71% 29.87 in 10.0 mi Calm Calm - N/A   Clear
9:54 PM 48.2 °F - 42.8 °F 82% 29.87 in 10.0 mi Calm Calm - N/A   Clear
10:14 PM 46.4 °F 45.2 °F 42.8 °F 87% 29.87 in 10.0 mi West 3.5 mph - N/A   Clear
10:34 PM 44.6 °F 43.1 °F 42.8 °F 93% 29.87 in 10.0 mi WSW 3.5 mph - N/A   Clear
10:54 PM 46.4 °F 45.2 °F 42.8 °F 87% 29.87 in 10.0 mi SW 3.5 mph - N/A   Clear
11:14 PM 44.6 °F 42.2 °F 42.8 °F 93% 29.87 in 10.0 mi SW 4.6 mph - N/A   Clear
11:34 PM 44.6 °F 42.2 °F 41.0 °F 87% 29.87 in 10.0 mi SW 4.6 mph - N/A   Clear
11:54 PM 46.4 °F 44.3 °F 42.8 °F 87% 29.87 in 10.0 mi SW 4.6 mph - N/A   Clear